Historyczne dane pomiarowe

Dodano dane terminowe – wersja testowa.

Dane z okresu 1951-2019

Wersja bazy: 1.34 [2019-03-16, lista zmian], aktualizacja planowana na 2019-04-15

Dane meteo z obszaru Polski uzyskane na podstawie danych udostępnionych przez Instytut Meteorologii i Gospodarki Wodnej – Państwowy Instytut Badawczy.

 

Wybierz Datę:    

       

TemperaturaWilgotnośćWiatrCiśnienieOpadyŚniegCzas trwania zjawisk
 Stacja t tx tn tng RH VA  wxwx mslp ppp RRR   cm mm wxwxwxwxwxwxwx
1959-10-10 6.5 14.9 -3.2- 66.5- 0.0 1.3---- 0.0------------
1959-10-09 7.7 15.8 0.3- 74.5- 0.0 2.3---- 0.0------------
1959-10-08 8.1 19.4 -1.1- 68.3- 1.0 1.7---- 0.0------------
1959-10-07 6.5 18.9 -2.5- 70.5- 0.0 1.0---- 0.0------------
1959-10-06 6.7 14.4 -3.1- 53.5- 2.0 2.3---- 0.0------------
1959-10-05 4.2 10.4 -1.6- 55.5- 0.7 3.7---- 0.0------------
1959-10-04 8.2 13.7 5.1- 70.5- 5.0 5.3---- 0.0------------
1959-10-03 11.7 19.3 -0.4- 71.8- 4.0 2.7---- 0.0------------
1959-10-02 9.4 20.1 2.3- 79.8- 0.0 1.0---- 0.0------------
1959-10-01 6.4 17.5 -3.9- 80.8- 1.0 1.7---- 0.0------------
1959-09-30 5.1 14.9 -2.5- 84.0- 1.0 1.0---- 0.0------------
1959-09-29 7.2 14.5 -3.3- 72.5- 3.3 2.0---- 0.0------------
1959-09-28 7.9 14.7 4.3- 71.3- 3.7 5.0---- 0.0------------
1959-09-27 13.0 21.8 4.3- 60.3- 3.7 4.3---- 0.0------------
1959-09-26 10.0 19.6 -1.2- 64.8- 1.0 3.0---- 0.0------------
1959-09-25 7.2 16.8 -0.1- 78.8- 1.0 1.3---- 0.0------------
1959-09-24 11.7 15.9 8.8- 78.8- 4.0 3.7---- 0.0------------
1959-09-23 13.2 19.1 9.4- 73.5- 2.7 5.0---- 0.0------------
1959-09-22 14.2 19.6 10.2- 78.8- 5.3 5.0---- 0.3------------
1959-09-21 12.6 23.0 1.0- 71.5- 1.3 2.0---- 0.0------------
1959-09-20 11.5 18.6 6.7- 80.5- 5.0 3.3---- 0.0------------
1959-09-19 10.2 19.8 -0.6- 67.8- 5.3 2.0---- 0.0------------
1959-09-18 7.8 17.2 0.6- 75.0- 1.7 1.3---- 0.0------------
1959-09-17 7.4 16.8 -0.7- 65.5- 1.0 2.7---- 0.0------------
1959-09-16 12.5 19.5 5.3- 67.5- 3.7 4.3---- 0.0------------
1959-09-15 11.1 21.1 1.8- 75.0- 0.0 1.3---- 0.0------------
1959-09-14 12.7 20.1 7.3- 64.0- 1.3 4.7---- 0.0------------
1959-09-13 17.0 24.9 6.8- 66.5- 6.0 4.7---- 0.0------------
1959-09-12 13.8 24.9 5.1- 78.3- 0.0 0.7---- 0.0------------
1959-09-11 14.5 23.2 6.9- 79.5- 2.3 2.7---- 0.0------------
1959-09-10 14.2 23.4 5.7- 77.5- 0.3 2.3---- 0.0------------
1959-09-09 15.0 22.0 7.3- 83.0- 2.3 1.0---- 0.0------------
1959-09-08 14.8 22.9 5.0- 73.0- 4.7 3.3---- 0.0------------
1959-09-07 12.3 20.8 6.2- 82.5- 2.3 2.7---- 0.0------------
1959-09-06 13.7 20.0 7.5- 80.5- 3.7 1.3---- 0.0------------
1959-09-05 13.0 20.4 5.5- 84.3- 1.3 2.0---- 0.0------------
1959-09-04 13.7 22.1 4.8- 82.5- 3.7 0.7---- 5.8------------
1959-09-03 12.6 21.4 5.4- 79.0- 3.7 2.0---- 0.0------------
1959-09-02 11.6 19.9 7.1- 81.0- 2.0 2.7---- 0.0------------
1959-09-01 12.4 17.5 3.9- 74.5- 4.7 2.0---- 0.0------------
1959-08-31 12.5 17.5 5.2- 83.5- 7.0 3.3---- 0.0------------
1959-08-30 12.2 17.3 4.7- 75.5- 4.3 3.7---- 0.0------------
1959-08-29 11.7 19.8 5.2- 81.3- 3.3 4.0---- 0.0------------
1959-08-28 13.1 19.1 6.5- 83.5- 4.3 4.0---- 0.0------------
1959-08-27 16.0 23.2 13.9- 61.0- 1.7 6.0---- 0.0------------
1959-08-26 22.2 25.6 19.8- 69.8- 7.7 6.0---- 0.0------------
1959-08-25 22.3 27.4 13.5- 75.5- 7.0 4.3---- 0.0------------
1959-08-24 21.5 29.5 14.0- 81.5- 1.7 1.7---- 0.0------------
1959-08-23 21.5 29.9 13.4- 70.0- 0.0 1.0---- 0.0------------
1959-08-22 22.0 29.3 13.5- 65.8- 0.0 2.3---- 0.0------------
1959-08-21 21.1 28.3 11.3- 68.0- 0.0 2.3---- 0.0------------
1959-08-20 19.9 27.2 12.2- 74.8- 0.7 3.0---- 0.0------------
1959-08-19 18.5 26.0 12.7- 77.5- 1.0 3.0---- 0.0------------
1959-08-18 18.6 26.7 12.3- 82.8- 1.0 3.0---- 3.6------------
1959-08-17 17.3 24.3 13.8- 87.5- 5.3 2.0---- 1.0------------
1959-08-16 17.5 23.9 14.0- 83.8- 6.0 4.0---- 0.0------------
1959-08-15 20.5 25.6 15.1- 71.0- 6.3 4.3---- 0.0------------
1959-08-14 19.7 24.0 16.4- 86.0- 5.0 3.7---- 0.0------------
1959-08-13 20.6 25.3 15.5- 85.8- 1.7 2.3---- 0.0------------
1959-08-12 19.7 24.8 17.0- 90.0- 6.3 3.0---- 9.5------------
273.7 ms

 

Źródłem pochodzenia danych jest Instytut Meteorologii i Gospodarki Wodnej – Państwowy Instytut Badawczy. Dane Instytutu Meteorologii i Gospodarki Wodnej – Państwowego Instytutu Badawczego zostały przetworzone.

Dane źródłowe można odnaleźć na stronie https://dane.imgw.pl